Time;durP1;ratioP1;P1;durP2;ratioP2;P2;SDS_P1;SDS_P2;PMS_P1;PMS_P2;Temp;Humidity;BMP_temperature;BMP_pressure;BME280_temperature;BME280_humidity;BME280_pressure;Samples;Min_cycle;Max_cycle;Signal;HPM_P1;HPM_P2
2023/01/01 00:02:23;;;;;;;59.97;40.72;;;15.60;99.90;;;;;;5100903;28;20219;-70
2023/01/01 00:04:50;;;;;;;33.88;19.17;;;15.70;99.90;;;;;;5081535;28;20651;-69
2023/01/01 00:07:17;;;;;;;41.80;26.00;;;15.70;99.90;;;;;;5107106;28;20212;-70
2023/01/01 00:12:31;;;;;;;37.22;23.95;;;15.80;99.90;;;;;;5090617;28;20207;-70
2023/01/01 00:14:57;;;;;;;50.33;33.20;;;15.80;99.90;;;;;;5105418;28;20199;-70
2023/01/01 00:17:25;;;;;;;50.20;31.73;;;15.80;99.90;;;;;;5106847;28;20299;-69
2023/01/01 00:19:52;;;;;;;32.83;19.67;;;15.80;99.90;;;;;;5109942;28;20227;-70
2023/01/01 00:22:18;;;;;;;33.72;20.05;;;15.80;99.90;;;;;;5105942;28;20246;-71
2023/01/01 00:25:06;;;;;;;34.20;19.42;;;15.80;99.90;;;;;;5104108;28;20202;-70
2023/01/01 00:27:33;;;;;;;22.75;15.70;;;15.80;99.90;;;;;;5106560;28;20278;-70
2023/01/01 00:30:00;;;;;;;32.55;19.13;;;15.80;99.90;;;;;;5110203;28;20655;-71
2023/01/01 00:32:27;;;;;;;30.23;19.90;;;15.80;99.90;;;;;;5091129;28;20728;-71
2023/01/01 00:34:53;;;;;;;33.38;18.83;;;15.80;99.90;;;;;;5105836;28;20199;-71
2023/01/01 00:37:20;;;;;;;26.98;16.40;;;15.80;99.90;;;;;;5110200;28;20302;-71
2023/01/01 00:39:47;;;;;;;29.75;15.43;;;15.70;99.90;;;;;;5109053;28;20227;-71
2023/01/01 00:42:14;;;;;;;28.23;16.27;;;15.70;99.90;;;;;;5107931;28;20261;-71
2023/01/01 00:44:40;;;;;;;29.92;17.40;;;15.60;99.90;;;;;;5105322;28;20289;-71
2023/01/01 00:47:07;;;;;;;27.80;16.20;;;15.60;99.90;;;;;;5112966;28;20233;-71
2023/01/01 00:49:34;;;;;;;29.48;16.50;;;15.60;99.90;;;;;;5112889;28;20290;-70
2023/01/01 00:52:00;;;;;;;23.48;15.23;;;15.60;99.90;;;;;;5109347;28;20243;-70
2023/01/01 00:54:27;;;;;;;29.38;15.98;;;15.60;99.90;;;;;;5105574;28;20204;-70
2023/01/01 00:56:56;;;;;;;19.05;11.70;;;15.60;99.90;;;;;;5111088;28;20224;-70
2023/01/01 00:59:23;;;;;;;21.58;12.57;;;15.60;99.90;;;;;;5112036;28;20294;-70
2023/01/01 01:01:54;;;;;;;18.05;12.48;;;15.60;99.90;;;;;;5111444;28;20207;-70
2023/01/01 01:04:22;;;;;;;21.02;11.35;;;15.60;99.90;;;;;;5112600;28;20199;-70
2023/01/01 01:06:48;;;;;;;23.90;10.32;;;15.60;99.90;;;;;;5112162;28;20230;-71
2023/01/01 01:09:15;;;;;;;22.35;12.30;;;15.70;99.90;;;;;;5112310;28;20286;-70
2023/01/01 01:11:42;;;;;;;16.90;9.77;;;15.70;99.90;;;;;;5113284;28;20243;-71
2023/01/01 01:14:08;;;;;;;18.52;10.35;;;15.70;99.90;;;;;;5113080;28;20285;-70
2023/01/01 01:16:35;;;;;;;22.83;10.70;;;15.70;99.90;;;;;;5112487;28;20203;-71
2023/01/01 01:19:05;;;;;;;19.25;9.68;;;15.70;99.90;;;;;;5110673;28;20256;-72
2023/01/01 01:21:33;;;;;;;19.52;8.52;;;15.70;99.90;;;;;;5110079;28;20211;-70
2023/01/01 01:24:02;;;;;;;18.52;8.40;;;15.70;99.90;;;;;;5112649;28;20672;-71
2023/01/01 01:26:31;;;;;;;20.25;7.38;;;15.70;99.90;;;;;;5110531;28;20230;-70
2023/01/01 01:28:58;;;;;;;18.40;7.40;;;15.60;99.90;;;;;;5112139;28;20238;-71
2023/01/01 01:31:31;;;;;;;21.60;6.65;;;15.70;99.90;;;;;;5112136;28;20219;-71
2023/01/01 01:33:58;;;;;;;18.05;6.53;;;15.70;99.90;;;;;;5090367;28;20289;-71
2023/01/01 01:36:25;;;;;;;14.02;5.78;;;15.70;99.90;;;;;;5109311;28;20211;-71
2023/01/01 01:38:52;;;;;;;12.90;5.38;;;15.70;99.90;;;;;;5110457;28;20629;-71
2023/01/01 01:41:23;;;;;;;15.15;5.75;;;15.70;99.90;;;;;;5110522;28;20314;-71
2023/01/01 01:44:33;;;;;;;11.93;4.95;;;15.70;99.90;;;;;;5093257;28;20317;-71
2023/01/01 01:47:01;;;;;;;16.92;6.07;;;15.70;99.90;;;;;;5080637;28;20294;-71
2023/01/01 01:49:30;;;;;;;10.27;4.63;;;15.60;99.90;;;;;;5108599;28;20218;-71
2023/01/01 01:51:59;;;;;;;11.77;4.90;;;15.60;99.90;;;;;;5112110;28;20218;-71
2023/01/01 01:54:28;;;;;;;13.10;5.35;;;15.50;99.90;;;;;;5106300;28;20203;-71
2023/01/01 01:56:59;;;;;;;10.95;4.45;;;15.50;99.90;;;;;;5111561;28;20207;-69
2023/01/01 01:59:30;;;;;;;9.88;4.15;;;15.40;99.90;;;;;;5112267;28;20282;-70
2023/01/01 02:01:58;;;;;;;10.10;5.20;;;15.30;99.90;;;;;;5110858;28;20585;-70
2023/01/01 02:04:25;;;;;;;10.30;4.85;;;15.30;99.90;;;;;;5111316;28;20286;-70
2023/01/01 02:06:53;;;;;;;15.85;5.15;;;15.20;99.90;;;;;;5108871;28;20298;-70
2023/01/01 02:09:20;;;;;;;12.70;4.60;;;15.30;99.90;;;;;;5112143;28;20234;-70
2023/01/01 02:11:46;;;;;;;9.77;4.32;;;15.20;99.90;;;;;;5110841;28;20719;-71
2023/01/01 02:14:13;;;;;;;7.78;3.70;;;15.20;99.90;;;;;;5105441;28;20219;-70
2023/01/01 02:16:54;;;;;;;9.27;4.00;;;15.20;99.90;;;;;;5111815;28;20647;-70
2023/01/01 02:19:39;;;;;;;13.50;4.28;;;15.20;99.90;;;;;;5106414;28;20199;-70
2023/01/01 02:22:20;;;;;;;11.35;4.45;;;15.20;99.90;;;;;;5110726;28;20694;-70
2023/01/01 02:25:12;;;;;;;10.43;3.95;;;15.10;99.90;;;;;;5106544;28;20195;-71
2023/01/01 02:27:58;;;;;;;7.35;3.38;;;15.20;99.90;;;;;;5111092;28;20227;-70
2023/01/01 02:30:29;;;;;;;9.88;3.25;;;15.20;99.90;;;;;;5109235;28;20294;-70
2023/01/01 02:33:01;;;;;;;4.88;2.83;;;15.10;99.90;;;;;;5110820;28;20639;-70
2023/01/01 02:35:41;;;;;;;6.57;2.97;;;15.10;99.90;;;;;;5107222;28;20195;-70
2023/01/01 02:38:19;;;;;;;7.18;2.97;;;15.10;99.90;;;;;;5106837;28;20318;-70
2023/01/01 02:40:49;;;;;;;12.52;3.53;;;15.20;99.90;;;;;;5110161;28;20301;-70
2023/01/01 02:43:16;;;;;;;6.55;2.65;;;15.20;99.90;;;;;;5108305;28;20227;-70
2023/01/01 02:45:50;;;;;;;9.98;3.30;;;15.20;99.90;;;;;;5107657;28;20211;-69
2023/01/01 02:48:43;;;;;;;5.63;2.80;;;15.10;99.90;;;;;;5104195;28;20285;-70
2023/01/01 02:51:13;;;;;;;4.93;2.83;;;15.20;99.90;;;;;;5105826;28;20544;-70
2023/01/01 02:54:03;;;;;;;7.53;3.15;;;15.20;99.90;;;;;;5108541;28;20218;-70
2023/01/01 02:56:44;;;;;;;8.32;3.05;;;15.20;99.90;;;;;;5108204;28;20195;-69
2023/01/01 03:02:47;;;;;;;5.93;2.67;;;15.20;99.90;;;;;;5110725;28;20206;-71
2023/01/01 03:05:32;;;;;;;7.68;2.20;;;15.20;99.90;;;;;;5092396;28;20199;-71
2023/01/01 03:08:24;;;;;;;7.30;2.50;;;15.30;99.90;;;;;;5092691;28;20306;-69
2023/01/01 03:10:57;;;;;;;9.27;2.40;;;15.20;99.90;;;;;;5093058;28;20234;-70
2023/01/01 03:13:35;;;;;;;10.70;2.70;;;15.30;99.90;;;;;;5104453;28;20302;-71
2023/01/01 03:16:15;;;;;;;11.90;2.95;;;15.30;99.90;;;;;;5108565;28;20202;-69
2023/01/01 03:19:09;;;;;;;8.07;2.97;;;15.30;99.90;;;;;;5110784;28;20195;-69
2023/01/01 03:21:49;;;;;;;8.30;3.45;;;15.30;99.90;;;;;;5082441;28;20215;-70
2023/01/01 03:24:42;;;;;;;8.07;2.90;;;15.30;99.90;;;;;;5110265;28;20706;-70
2023/01/01 03:27:17;;;;;;;7.25;2.60;;;15.30;99.90;;;;;;5060836;28;20612;-70
2023/01/01 03:29:46;;;;;;;7.32;2.70;;;15.30;99.90;;;;;;5110221;28;20302;-70
2023/01/01 03:32:20;;;;;;;8.38;3.42;;;15.30;99.90;;;;;;5108775;28;20315;-71
2023/01/01 03:34:53;;;;;;;6.80;2.88;;;15.30;99.90;;;;;;5090989;28;20276;-70
2023/01/01 03:37:24;;;;;;;7.20;2.50;;;15.30;99.90;;;;;;5107287;28;20314;-70
2023/01/01 03:39:56;;;;;;;9.00;3.35;;;15.30;99.90;;;;;;5106365;28;20265;-70
2023/01/01 03:42:33;;;;;;;4.10;2.45;;;15.40;99.90;;;;;;5110411;28;20373;-70
2023/01/01 03:45:12;;;;;;;6.63;2.97;;;15.30;99.90;;;;;;5106403;28;20239;-70
2023/01/01 03:47:39;;;;;;;5.43;2.30;;;15.20;99.90;;;;;;5108196;28;20199;-70
2023/01/01 03:50:07;;;;;;;6.28;2.50;;;15.20;99.90;;;;;;5110598;28;20275;-70
2023/01/01 03:53:06;;;;;;;5.65;2.22;;;15.20;99.90;;;;;;5108120;28;20307;-70
2023/01/01 03:55:45;;;;;;;7.15;2.47;;;15.20;99.90;;;;;;5105261;28;20214;-71
2023/01/01 03:58:38;;;;;;;6.28;2.00;;;15.20;99.90;;;;;;5107068;28;20202;-70
2023/01/01 04:01:16;;;;;;;8.73;2.97;;;15.10;99.90;;;;;;5104174;28;20226;-70
2023/01/01 04:03:44;;;;;;;6.43;2.17;;;15.20;99.90;;;;;;5108534;28;20223;-70
2023/01/01 04:06:11;;;;;;;6.03;2.20;;;15.20;99.90;;;;;;5107320;28;20211;-70
2023/01/01 04:08:38;;;;;;;6.00;2.50;;;15.20;99.90;;;;;;5092155;28;20211;-70
2023/01/01 04:14:02;;;;;;;9.95;2.80;;;15.20;99.90;;;;;;5104753;28;20248;-69
2023/01/01 04:16:29;;;;;;;7.82;2.78;;;15.20;99.90;;;;;;5105447;28;20205;-69
2023/01/01 04:18:55;;;;;;;5.88;2.47;;;15.30;99.90;;;;;;5093879;28;20205;-69
2023/01/01 04:21:22;;;;;;;9.70;2.53;;;15.30;99.90;;;;;;5114341;28;20643;-70
2023/01/01 04:23:49;;;;;;;5.72;2.40;;;15.30;99.90;;;;;;5113717;28;20662;-70
2023/01/01 04:26:16;;;;;;;8.55;2.83;;;15.30;99.90;;;;;;5111055;28;20205;-69
2023/01/01 04:28:43;;;;;;;7.38;3.17;;;15.20;99.90;;;;;;5096035;28;20199;-69
2023/01/01 04:31:10;;;;;;;10.65;3.05;;;15.20;99.90;;;;;;5095606;28;20203;-68
2023/01/01 04:33:37;;;;;;;6.05;2.50;;;15.00;99.90;;;;;;5113471;28;20543;-70
2023/01/01 04:36:06;;;;;;;9.73;2.60;;;14.80;99.90;;;;;;5109362;28;20767;-70
2023/01/01 04:38:33;;;;;;;6.70;2.38;;;14.60;99.90;;;;;;5113831;28;20309;-70
2023/01/01 04:41:01;;;;;;;6.20;2.60;;;14.60;99.90;;;;;;5113914;28;20229;-69
2023/01/01 04:43:29;;;;;;;7.10;2.80;;;14.40;99.90;;;;;;5112743;28;20215;-69
2023/01/01 04:45:58;;;;;;;5.60;2.93;;;14.20;99.90;;;;;;5110843;28;20235;-69
2023/01/01 04:48:25;;;;;;;7.33;2.63;;;14.00;99.90;;;;;;5113436;28;20681;-70
2023/01/01 04:50:59;;;;;;;8.30;2.60;;;13.90;99.90;;;;;;5110066;28;20203;-69
2023/01/01 04:53:30;;;;;;;8.23;2.57;;;13.70;99.90;;;;;;5108114;28;20596;-70
2023/01/01 04:56:06;;;;;;;6.83;2.53;;;13.60;99.90;;;;;;5113222;28;20294;-70
2023/01/01 04:58:34;;;;;;;7.10;2.47;;;13.60;99.90;;;;;;5095265;28;20203;-70
2023/01/01 05:01:00;;;;;;;6.80;2.70;;;13.50;99.90;;;;;;5111760;28;20703;-69
2023/01/01 05:03:28;;;;;;;10.23;2.80;;;13.50;99.90;;;;;;5113075;28;20191;-69
2023/01/01 05:06:01;;;;;;;7.43;2.90;;;13.50;99.90;;;;;;5108947;28;20239;-69
2023/01/01 05:08:30;;;;;;;6.40;3.23;;;13.50;99.90;;;;;;5113041;28;20223;-69
2023/01/01 05:11:04;;;;;;;10.93;3.30;;;13.50;99.90;;;;;;5112139;28;20199;-70
2023/01/01 05:13:33;;;;;;;6.27;3.03;;;13.40;99.90;;;;;;5112968;28;20201;-70
2023/01/01 05:16:06;;;;;;;8.43;3.23;;;13.40;99.90;;;;;;5111138;28;20231;-69
2023/01/01 05:18:35;;;;;;;10.23;2.87;;;13.30;99.90;;;;;;5084398;28;20613;-70
2023/01/01 05:21:03;;;;;;;7.13;2.40;;;13.30;99.90;;;;;;5113115;28;20231;-69
2023/01/01 05:23:30;;;;;;;9.73;3.10;;;13.30;99.90;;;;;;5113122;28;20269;-69
2023/01/01 05:25:57;;;;;;;10.17;2.67;;;13.30;99.90;;;;;;5112142;28;20219;-71
2023/01/01 05:28:24;;;;;;;12.10;3.17;;;13.30;99.90;;;;;;5110724;28;20195;-69
2023/01/01 05:30:52;;;;;;;11.30;3.33;;;13.40;99.90;;;;;;5111432;28;20940;-69
2023/01/01 05:33:19;;;;;;;6.80;2.90;;;13.40;99.90;;;;;;5111606;28;20234;-70
2023/01/01 05:35:52;;;;;;;6.83;2.40;;;13.40;99.90;;;;;;5110625;28;20662;-70
2023/01/01 05:38:19;;;;;;;9.37;2.50;;;13.40;99.90;;;;;;5111524;28;20688;-70
2023/01/01 05:40:46;;;;;;;5.83;2.30;;;13.50;99.90;;;;;;5107446;28;20257;-70
2023/01/01 05:43:12;;;;;;;5.03;2.10;;;13.40;99.90;;;;;;5112090;28;20330;-70
2023/01/01 05:45:39;;;;;;;5.00;2.30;;;13.50;99.90;;;;;;5107997;28;20201;-70
2023/01/01 05:48:06;;;;;;;9.90;2.60;;;13.60;99.90;;;;;;5103066;28;20215;-70
2023/01/01 05:50:32;;;;;;;5.33;1.97;;;13.60;99.90;;;;;;5110458;28;20326;-69
2023/01/01 05:52:59;;;;;;;5.30;2.53;;;13.70;99.90;;;;;;5106559;28;20353;-70
2023/01/01 05:55:26;;;;;;;3.57;1.90;;;13.70;99.90;;;;;;5105828;28;20666;-70
2023/01/01 05:57:53;;;;;;;7.13;2.10;;;13.70;99.90;;;;;;5108342;28;20282;-70
2023/01/01 06:00:20;;;;;;;8.77;2.37;;;13.80;99.90;;;;;;5109069;28;20238;-70
2023/01/01 06:02:48;;;;;;;12.00;2.30;;;13.80;99.90;;;;;;5105214;28;20275;-70
2023/01/01 06:05:16;;;;;;;7.27;2.27;;;13.80;99.90;;;;;;5111565;28;20199;-70
2023/01/01 06:07:42;;;;;;;7.97;2.13;;;13.90;99.90;;;;;;5092871;28;20310;-70
2023/01/01 06:10:14;;;;;;;8.30;2.37;;;13.80;99.90;;;;;;5111747;28;20211;-70
2023/01/01 06:12:41;;;;;;;4.27;2.03;;;13.90;99.90;;;;;;5103627;28;20246;-71
2023/01/01 06:15:08;;;;;;;7.80;2.30;;;13.90;99.90;;;;;;5111465;28;20753;-70
2023/01/01 06:17:34;;;;;;;8.90;2.07;;;13.90;99.90;;;;;;5110457;28;20841;-71
2023/01/01 06:20:01;;;;;;;6.33;1.83;;;13.90;99.90;;;;;;5108186;28;20302;-71
2023/01/01 06:22:28;;;;;;;4.80;1.73;;;13.90;99.90;;;;;;5107138;28;20309;-71
2023/01/01 06:24:54;;;;;;;4.40;1.60;;;13.90;99.90;;;;;;5105864;28;20290;-71
2023/01/01 06:27:21;;;;;;;7.10;1.70;;;13.90;99.90;;;;;;5110464;28;20282;-71
2023/01/01 06:29:48;;;;;;;3.13;1.40;;;13.90;99.90;;;;;;5108206;28;20195;-70
2023/01/01 06:32:14;;;;;;;5.20;1.57;;;13.90;99.90;;;;;;5105353;28;20215;-70
2023/01/01 06:34:41;;;;;;;2.87;2.17;;;13.90;99.90;;;;;;5109743;28;20203;-70
2023/01/01 06:37:08;;;;;;;6.37;1.43;;;13.90;99.90;;;;;;5110957;28;20297;-69
2023/01/01 06:39:35;;;;;;;7.40;1.40;;;13.80;99.90;;;;;;5109007;28;20278;-70
2023/01/01 06:42:01;;;;;;;5.00;1.60;;;13.90;99.90;;;;;;5110769;28;20270;-70
2023/01/01 06:44:28;;;;;;;3.87;1.23;;;13.80;99.90;;;;;;5105696;28;20195;-70
2023/01/01 06:46:55;;;;;;;5.57;1.40;;;13.80;99.90;;;;;;5111036;28;20237;-71
2023/01/01 06:49:21;;;;;;;3.93;1.20;;;13.70;99.90;;;;;;5110216;28;20663;-70
2023/01/01 06:51:48;;;;;;;6.17;1.80;;;13.70;99.90;;;;;;5105933;28;20203;-70
2023/01/01 06:54:15;;;;;;;4.30;1.50;;;13.70;99.90;;;;;;5110481;28;20207;-70
2023/01/01 06:56:41;;;;;;;5.47;1.50;;;13.70;99.90;;;;;;5108349;28;20209;-70
2023/01/01 06:59:08;;;;;;;4.80;1.60;;;13.70;99.90;;;;;;5107454;28;20231;-70
2023/01/01 07:01:36;;;;;;;2.53;1.30;;;13.70;99.90;;;;;;5106805;28;20261;-70
2023/01/01 07:04:07;;;;;;;4.97;1.40;;;13.70;99.90;;;;;;5099131;28;20234;-69
2023/01/01 07:06:34;;;;;;;5.93;1.93;;;13.60;99.90;;;;;;5101808;28;20291;-69
2023/01/01 07:09:01;;;;;;;4.77;1.83;;;13.50;99.90;;;;;;5106648;28;20223;-69
2023/01/01 07:11:29;;;;;;;4.10;1.13;;;13.50;99.90;;;;;;5110832;28;20285;-70
2023/01/01 07:13:55;;;;;;;3.40;1.10;;;13.50;99.90;;;;;;5086072;28;20671;-69
2023/01/01 07:16:22;;;;;;;3.80;1.43;;;13.40;99.90;;;;;;5104615;28;20714;-70
2023/01/01 07:18:50;;;;;;;6.07;1.10;;;13.40;99.90;;;;;;5104993;28;20191;-70
2023/01/01 07:21:42;;;;;;;4.27;1.20;;;13.40;99.90;;;;;;5110280;28;20221;-70
2023/01/01 07:24:11;;;;;;;2.87;1.50;;;13.40;99.90;;;;;;5110104;28;20206;-70
2023/01/01 07:26:39;;;;;;;3.20;1.37;;;13.40;99.90;;;;;;5104531;28;20223;-70
2023/01/01 07:29:07;;;;;;;6.07;1.30;;;13.30;99.90;;;;;;5109999;28;20191;-70
2023/01/01 07:31:39;;;;;;;3.87;1.13;;;13.30;99.90;;;;;;5109865;28;20195;-70
2023/01/01 07:34:11;;;;;;;5.63;1.60;;;13.30;99.90;;;;;;5088518;28;20223;-70
2023/01/01 07:36:38;;;;;;;4.27;1.07;;;13.30;99.90;;;;;;5106178;28;20195;-71
2023/01/01 07:39:05;;;;;;;6.67;1.30;;;13.30;99.90;;;;;;5109612;28;20238;-71
2023/01/01 07:41:32;;;;;;;4.73;1.20;;;13.30;99.90;;;;;;5091094;28;20318;-70
2023/01/01 07:43:59;;;;;;;3.17;1.20;;;13.20;99.90;;;;;;5106510;28;20237;-70
2023/01/01 07:46:26;;;;;;;6.90;2.00;;;13.20;99.90;;;;;;5110122;28;20221;-71
2023/01/01 07:48:53;;;;;;;4.57;1.30;;;13.10;99.90;;;;;;5109091;28;20234;-70
2023/01/01 07:51:20;;;;;;;7.93;1.40;;;13.00;99.90;;;;;;5107715;28;20298;-70
2023/01/01 07:53:46;;;;;;;6.67;1.30;;;13.00;99.90;;;;;;5109674;28;20219;-70
2023/01/01 07:56:13;;;;;;;5.43;1.40;;;13.00;99.90;;;;;;5112071;28;20666;-71
2023/01/01 07:58:40;;;;;;;6.03;1.50;;;13.00;99.90;;;;;;5087466;28;20249;-70
2023/01/01 08:01:13;;;;;;;4.70;1.23;;;12.90;99.90;;;;;;5091343;28;20276;-70
2023/01/01 08:03:40;;;;;;;5.67;1.40;;;12.80;99.90;;;;;;5110168;28;20284;-70
2023/01/01 08:06:12;;;;;;;5.97;1.20;;;12.80;99.90;;;;;;5104858;28;20203;-70
2023/01/01 08:08:39;;;;;;;3.93;1.40;;;12.80;99.90;;;;;;5111294;28;20682;-70
2023/01/01 08:11:07;;;;;;;6.63;1.37;;;12.70;99.90;;;;;;5110316;28;20685;-69
2023/01/01 08:13:34;;;;;;;2.93;1.30;;;12.70;99.90;;;;;;5086575;28;20263;-69
2023/01/01 08:16:01;;;;;;;3.57;1.20;;;12.70;99.90;;;;;;5114380;28;20243;-70
2023/01/01 08:18:27;;;;;;;5.93;1.40;;;12.70;99.90;;;;;;5092352;28;20226;-70
2023/01/01 08:20:56;;;;;;;7.93;2.10;;;12.60;99.90;;;;;;5109237;28;20253;-70
2023/01/01 08:23:23;;;;;;;6.33;1.43;;;12.60;99.90;;;;;;5112987;28;20581;-70
2023/01/01 08:25:51;;;;;;;3.67;1.17;;;12.50;99.90;;;;;;5113158;28;20729;-70
2023/01/01 08:28:17;;;;;;;3.97;1.60;;;12.50;99.90;;;;;;5112035;28;20202;-70
2023/01/01 08:30:44;;;;;;;5.80;1.17;;;12.50;99.90;;;;;;5113289;28;20615;-70
2023/01/01 08:33:11;;;;;;;3.97;1.03;;;12.50;99.90;;;;;;5113051;28;20314;-70
2023/01/01 08:35:41;;;;;;;4.50;1.17;;;12.50;99.90;;;;;;5105963;28;20200;-70
2023/01/01 08:38:10;;;;;;;5.43;1.50;;;12.50;99.90;;;;;;5102757;28;20235;-70
2023/01/01 08:40:38;;;;;;;4.60;1.47;;;12.50;99.90;;;;;;5114000;28;20562;-70
2023/01/01 08:43:05;;;;;;;7.17;1.17;;;12.50;99.90;;;;;;5112866;28;20239;-70
2023/01/01 08:45:32;;;;;;;5.70;1.23;;;12.40;99.90;;;;;;5112427;28;20294;-70
2023/01/01 08:47:59;;;;;;;4.40;1.63;;;12.50;99.90;;;;;;5112995;28;20196;-71
2023/01/01 08:50:26;;;;;;;7.53;1.60;;;12.50;99.90;;;;;;5108510;28;20207;-68
2023/01/01 08:52:53;;;;;;;5.93;1.40;;;12.50;99.90;;;;;;5113436;28;20306;-70
2023/01/01 08:55:20;;;;;;;9.17;1.93;;;12.50;99.90;;;;;;5113028;28;20298;-70
2023/01/01 08:57:47;;;;;;;5.03;1.20;;;12.50;99.90;;;;;;5113575;28;20286;-70
2023/01/01 09:00:15;;;;;;;7.40;1.60;;;12.50;99.90;;;;;;5111597;28;20242;-71
2023/01/01 09:02:42;;;;;;;4.00;1.37;;;12.50;99.90;;;;;;5112483;28;20227;-71
2023/01/01 09:05:09;;;;;;;6.87;1.43;;;12.50;99.90;;;;;;5110944;28;20610;-71
2023/01/01 09:07:37;;;;;;;8.03;1.50;;;12.50;99.90;;;;;;5113143;28;20434;-70
2023/01/01 09:10:04;;;;;;;7.53;1.93;;;12.50;99.90;;;;;;5113553;28;20195;-71
2023/01/01 09:12:31;;;;;;;4.70;1.53;;;12.50;99.90;;;;;;5113002;28;20203;-72
2023/01/01 09:14:58;;;;;;;8.10;1.80;;;12.50;99.90;;;;;;5113746;28;20195;-71
2023/01/01 09:17:25;;;;;;;6.60;1.57;;;12.50;99.90;;;;;;5094113;28;20570;-70
2023/01/01 09:19:52;;;;;;;7.70;1.50;;;12.50;99.90;;;;;;5081886;28;20295;-71
2023/01/01 09:22:18;;;;;;;8.27;1.87;;;12.50;99.90;;;;;;5102569;28;20237;-70
2023/01/01 09:24:45;;;;;;;10.37;1.73;;;12.50;99.90;;;;;;5108770;28;21187;-70
2023/01/01 09:27:12;;;;;;;5.97;1.40;;;12.50;99.90;;;;;;5111760;28;20226;-71
2023/01/01 09:29:39;;;;;;;6.67;1.50;;;12.60;99.90;;;;;;5110605;28;20802;-70
2023/01/01 09:32:05;;;;;;;6.30;1.47;;;12.60;99.90;;;;;;5092810;28;20205;-70
2023/01/01 09:34:32;;;;;;;9.73;2.00;;;12.60;99.90;;;;;;5086714;28;20206;-70
2023/01/01 09:36:59;;;;;;;7.07;1.93;;;12.60;99.90;;;;;;5105791;28;20245;-71
2023/01/01 09:39:25;;;;;;;13.33;2.00;;;12.50;99.90;;;;;;5112760;28;20203;-69
2023/01/01 09:42:10;;;;;;;9.10;1.80;;;12.60;99.90;;;;;;5094397;28;20223;-70
2023/01/01 09:45:10;;;;;;;8.00;1.93;;;12.60;99.90;;;;;;5090348;28;20630;-70
2023/01/01 09:47:40;;;;;;;6.63;1.60;;;12.50;99.90;;;;;;5108665;28;20203;-70
2023/01/01 09:50:33;;;;;;;11.77;1.87;;;12.60;99.90;;;;;;5112270;28;20314;-70
2023/01/01 09:53:24;;;;;;;5.87;1.27;;;12.60;99.90;;;;;;5107819;28;20211;-69
2023/01/01 09:55:58;;;;;;;8.30;1.90;;;12.60;99.90;;;;;;5092861;28;21119;-69
2023/01/01 09:58:32;;;;;;;10.93;1.60;;;12.60;99.90;;;;;;5111555;28;20263;-70
2023/01/01 10:01:20;;;;;;;12.93;1.93;;;12.70;99.90;;;;;;5108066;28;20234;-71
2023/01/01 10:04:17;;;;;;;6.57;1.83;;;12.70;99.90;;;;;;5109827;28;20243;-71
2023/01/01 10:07:13;;;;;;;6.27;1.57;;;12.80;99.90;;;;;;5083825;28;20199;-70
2023/01/01 10:10:12;;;;;;;10.77;2.90;;;12.90;99.90;;;;;;5108587;28;20572;-69
2023/01/01 10:12:52;;;;;;;6.53;1.60;;;12.90;99.90;;;;;;5109964;28;20227;-70
2023/01/01 10:15:31;;;;;;;8.97;2.10;;;13.00;99.90;;;;;;5110776;28;20298;-70
2023/01/01 10:18:02;;;;;;;6.63;1.83;;;13.00;99.90;;;;;;5090963;28;20235;-70
2023/01/01 10:20:37;;;;;;;11.63;2.53;;;13.00;99.90;;;;;;5111507;28;20253;-71
2023/01/01 10:23:21;;;;;;;8.60;1.60;;;13.10;99.90;;;;;;5110904;28;20231;-70
2023/01/01 10:25:48;;;;;;;5.07;1.77;;;13.10;99.90;;;;;;5086711;28;20233;-70
2023/01/01 10:28:29;;;;;;;10.33;2.17;;;13.00;99.90;;;;;;5093297;28;21357;-70
2023/01/01 10:31:24;;;;;;;8.67;1.50;;;13.10;99.90;;;;;;5107843;28;20246;-70
2023/01/01 10:33:51;;;;;;;9.83;1.93;;;13.20;99.90;;;;;;5108067;28;20616;-70
2023/01/01 10:36:19;;;;;;;7.47;1.83;;;13.10;99.90;;;;;;5104791;27;20302;-71
2023/01/01 10:38:47;;;;;;;7.47;1.87;;;13.10;99.90;;;;;;5108076;28;21174;-70
2023/01/01 10:41:15;;;;;;;8.87;1.93;;;13.20;99.90;;;;;;5107317;28;20282;-70
2023/01/01 10:43:47;;;;;;;6.77;1.60;;;13.20;99.90;;;;;;5106047;28;20723;-70
2023/01/01 10:46:20;;;;;;;10.83;2.00;;;13.20;99.90;;;;;;5108075;28;20279;-71
2023/01/01 10:49:09;;;;;;;10.03;2.90;;;13.30;99.90;;;;;;5090992;28;20367;-70
2023/01/01 10:51:45;;;;;;;8.43;2.17;;;13.30;99.90;;;;;;5108956;28;20207;-70
2023/01/01 10:54:39;;;;;;;11.33;2.10;;;13.40;99.90;;;;;;5108972;28;20655;-70
2023/01/01 10:57:20;;;;;;;15.53;2.60;;;13.40;99.90;;;;;;5106202;28;20195;-71
2023/01/01 10:59:47;;;;;;;7.43;2.37;;;13.30;99.90;;;;;;5107367;28;20294;-72
2023/01/01 11:02:26;;;;;;;8.50;2.10;;;13.40;99.90;;;;;;5090979;28;20584;-71
2023/01/01 11:05:28;;;;;;;7.00;2.03;;;13.40;99.90;;;;;;5109775;28;20739;-70
2023/01/01 11:07:55;;;;;;;9.10;2.30;;;13.30;99.90;;;;;;4978674;28;20243;-70
2023/01/01 11:10:29;;;;;;;7.30;2.70;;;13.30;99.90;;;;;;5085316;28;20215;-70
2023/01/01 11:12:56;;;;;;;6.97;1.90;;;13.20;99.90;;;;;;5109627;28;20201;-70
2023/01/01 11:15:40;;;;;;;6.03;1.63;;;13.30;99.90;;;;;;5088175;28;20215;-70
2023/01/01 11:18:13;;;;;;;11.03;2.27;;;13.20;99.90;;;;;;5103797;28;20294;-70
2023/01/01 11:20:41;;;;;;;14.73;2.30;;;13.20;99.90;;;;;;5111300;28;20235;-70
2023/01/01 11:23:30;;;;;;;10.43;2.10;;;13.10;99.90;;;;;;5110455;28;20235;-70
2023/01/01 11:26:20;;;;;;;7.30;2.83;;;13.20;99.90;;;;;;5110480;28;20199;-69
2023/01/01 11:29:13;;;;;;;8.03;1.93;;;13.20;99.90;;;;;;5091136;28;20307;-71
2023/01/01 11:31:41;;;;;;;10.23;1.90;;;13.30;99.90;;;;;;5101523;28;20312;-70
2023/01/01 11:34:29;;;;;;;10.57;2.07;;;13.20;99.90;;;;;;5092484;28;20233;-71
2023/01/01 11:37:22;;;;;;;8.70;2.30;;;13.30;99.90;;;;;;5106866;28;20215;-72
2023/01/01 11:39:51;;;;;;;11.13;2.73;;;13.20;99.90;;;;;;5110174;28;20247;-70
2023/01/01 11:42:21;;;;;;;9.50;2.17;;;13.30;99.90;;;;;;5109929;28;20699;-70
2023/01/01 11:44:54;;;;;;;7.00;2.10;;;13.30;99.90;;;;;;5109364;28;20306;-70
2023/01/01 11:47:42;;;;;;;7.27;2.50;;;13.30;99.90;;;;;;5103131;28;20199;-71
2023/01/01 11:50:23;;;;;;;13.90;4.00;;;13.40;99.90;;;;;;5109210;28;20191;-70
2023/01/01 11:52:52;;;;;;;11.20;2.60;;;13.40;99.90;;;;;;5107272;28;20593;-70
2023/01/01 11:55:41;;;;;;;10.00;2.67;;;13.40;99.90;;;;;;5108711;28;20199;-71
2023/01/01 11:58:13;;;;;;;6.67;2.50;;;13.50;99.90;;;;;;5104249;28;20207;-70
2023/01/01 12:00:48;;;;;;;8.53;3.10;;;13.40;99.90;;;;;;5108512;28;20198;-71
2023/01/01 12:03:24;;;;;;;12.47;5.77;;;13.40;99.90;;;;;;5106472;28;20767;-69
2023/01/01 12:06:26;;;;;;;11.80;5.03;;;13.40;99.90;;;;;;5108977;28;20195;-70
2023/01/01 12:09:09;;;;;;;11.30;4.77;;;13.50;99.90;;;;;;5107416;28;20231;-69
2023/01/01 12:12:06;;;;;;;10.73;3.07;;;13.40;99.90;;;;;;5108069;28;20191;-70
2023/01/01 12:15:03;;;;;;;8.80;3.33;;;13.50;99.90;;;;;;5089577;28;20679;-69
2023/01/01 12:17:37;;;;;;;6.10;2.37;;;13.50;99.90;;;;;;5109522;28;20203;-69
2023/01/01 12:20:20;;;;;;;10.37;2.67;;;13.60;99.90;;;;;;5092504;28;20261;-70
2023/01/01 12:22:47;;;;;;;9.67;2.70;;;13.60;99.90;;;;;;5107808;28;20231;-69
2023/01/01 12:25:18;;;;;;;13.40;4.10;;;13.60;99.90;;;;;;5090417;28;20612;-70
2023/01/01 12:27:56;;;;;;;10.13;3.20;;;13.70;99.90;;;;;;5110209;28;20214;-70
2023/01/01 12:30:36;;;;;;;9.10;3.60;;;13.70;99.90;;;;;;5105904;28;20275;-70
2023/01/01 12:33:18;;;;;;;12.30;3.00;;;13.80;99.90;;;;;;5091365;28;20211;-71
2023/01/01 12:36:09;;;;;;;12.97;3.07;;;13.80;99.90;;;;;;5107777;28;20203;-71
2023/01/01 12:39:28;;;;;;;10.87;3.00;;;13.90;99.90;;;;;;5107703;28;20219;-69
2023/01/01 12:42:18;;;;;;;14.40;3.93;;;14.00;99.90;;;;;;5070340;28;20653;-70
2023/01/01 12:45:16;;;;;;;15.73;3.20;;;14.00;99.90;;;;;;5089833;28;20208;-70
2023/01/01 12:47:56;;;;;;;12.43;2.90;;;14.00;99.90;;;;;;5106685;28;20733;-70
2023/01/01 12:50:35;;;;;;;7.20;2.80;;;14.00;99.90;;;;;;5108405;28;20252;-69
2023/01/01 12:53:18;;;;;;;13.63;3.43;;;14.00;99.90;;;;;;5110394;28;20268;-70
2023/01/01 12:56:10;;;;;;;8.63;3.57;;;14.00;99.90;;;;;;5090241;28;20245;-69
2023/01/01 12:59:05;;;;;;;10.97;3.57;;;14.10;99.90;;;;;;5084701;28;20199;-70
2023/01/01 13:01:33;;;;;;;11.87;3.50;;;14.10;99.90;;;;;;5107533;28;20199;-70
2023/01/01 13:04:03;;;;;;;9.87;3.40;;;14.10;99.90;;;;;;5113056;28;20317;-70
2023/01/01 13:06:37;;;;;;;11.50;3.17;;;14.10;99.90;;;;;;5107389;28;20286;-70
2023/01/01 13:09:15;;;;;;;12.07;3.87;;;14.10;99.90;;;;;;5112990;28;20224;-70
2023/01/01 13:11:47;;;;;;;11.00;3.73;;;14.10;99.90;;;;;;5109703;28;20282;-70
2023/01/01 13:14:14;;;;;;;9.33;3.87;;;14.00;99.90;;;;;;5108586;28;20569;-70
2023/01/01 13:16:44;;;;;;;10.63;3.60;;;14.10;99.90;;;;;;5109446;28;20718;-70
2023/01/01 13:19:30;;;;;;;14.80;4.80;;;14.10;99.90;;;;;;5112274;28;20289;-69
2023/01/01 13:21:58;;;;;;;10.37;3.80;;;14.20;99.90;;;;;;5108321;28;20215;-71